Flight Track Log - Related Links

Times and Time Zones

All times are in EDT time to prevent confusion due to time zone crossing. See the N508QS flight status page for this flight to view local times or setup timezone preferences in your user account.

Time Position Orientation Groundspeed Altitude Reporting Facility
EDT Latitude Longitude Course Direction KTS MPH feet Rate Location/Type
Thu 07:27:59 AM 53.0000 -20.0000 274° West 450 518 43,000  Level ETMS Enhanced Traffic Management System
Thu 07:34:00 AM 53.0522 -21.4555 273° West 450 518 43,000  Level FlightAware Transoceanic
Thu 07:35:00 AM 53.0583 -21.6637 273° West 450 518 43,000  Level FlightAware Transoceanic
Thu 07:36:00 AM 53.0639 -21.8719 273° West 450 518 43,000  Level FlightAware Transoceanic
Thu 07:37:00 AM 53.0692 -22.0802 272° West 450 518 43,000  Level FlightAware Transoceanic
Thu 07:38:00 AM 53.0741 -22.2886 272° West 450 518 43,000  Level FlightAware Transoceanic
Thu 07:39:00 AM 53.0787 -22.4970 272° West 450 518 43,000  Level FlightAware Transoceanic
Thu 07:40:00 AM 53.0829 -22.7054 272° West 450 518 43,000  Level FlightAware Transoceanic
Thu 07:41:00 AM 53.0867 -22.9139 272° West 450 518 43,000  Level FlightAware Transoceanic
Thu 07:42:00 AM 53.0902 -23.1224 272° West 450 518 43,000  Level FlightAware Transoceanic
Thu 07:43:00 AM 53.0933 -23.3309 271° West 450 518 43,000  Level FlightAware Transoceanic
Thu 07:44:00 AM 53.0960 -23.5395 271° West 450 518 43,000  Level FlightAware Transoceanic
Thu 07:45:00 AM 53.0984 -23.7481 271° West 450 518 43,000  Level FlightAware Transoceanic
Thu 07:46:00 AM 53.1004 -23.9567 271° West 450 518 43,000  Level FlightAware Transoceanic
Thu 07:47:00 AM 53.1020 -24.1653 271° West 450 518 43,000  Level FlightAware Transoceanic
Thu 07:48:00 AM 53.1033 -24.3740 271° West 450 518 43,000  Level FlightAware Transoceanic
Thu 07:49:00 AM 53.1042 -24.5827 270° West 450 518 43,000  Level FlightAware Transoceanic
Thu 07:50:00 AM 53.1048 -24.7913 270° West 450 518 43,000  Level FlightAware Transoceanic
Thu 07:51:00 AM 53.1049 -25.0000 270° West 450 518 43,000  Level FlightAware Transoceanic
Thu 07:52:00 AM 53.1048 -25.2087 270° West 450 518 43,000  Level FlightAware Transoceanic
Thu 07:53:00 AM 53.1042 -25.4173 270° West 450 518 43,000  Level FlightAware Transoceanic
Thu 07:54:00 AM 53.1033 -25.6260 269° West 450 518 43,000  Level FlightAware Transoceanic
Thu 07:55:00 AM 53.1020 -25.8347 269° West 450 518 43,000  Level FlightAware Transoceanic
Thu 07:56:00 AM 53.1004 -26.0433 269° West 450 518 43,000  Level FlightAware Transoceanic
Thu 07:57:00 AM 53.0984 -26.2519 269° West 450 518 43,000  Level FlightAware Transoceanic
Thu 07:58:00 AM 53.0960 -26.4605 269° West 450 518 43,000  Level FlightAware Transoceanic
Thu 07:59:00 AM 53.0933 -26.6691 269° West 450 518 43,000  Level FlightAware Transoceanic
Thu 08:00:00 AM 53.0902 -26.8776 268° West 450 518 43,000  Level FlightAware Transoceanic
Thu 08:01:00 AM 53.0867 -27.0861 268° West 450 518 43,000  Level FlightAware Transoceanic
Thu 08:02:00 AM 53.0829 -27.2946 268° West 450 518 43,000  Level FlightAware Transoceanic
Thu 08:03:00 AM 53.0787 -27.5030 268° West 450 518 43,000  Level FlightAware Transoceanic
Thu 08:04:00 AM 53.0741 -27.7114 268° West 450 518 43,000  Level FlightAware Transoceanic
Thu 08:05:00 AM 53.0692 -27.9198 268° West 450 518 43,000  Level FlightAware Transoceanic
Thu 08:06:00 AM 53.0639 -28.1281 267° West 450 518 43,000  Level FlightAware Transoceanic
Thu 08:07:00 AM 53.0583 -28.3363 267° West 450 518 43,000  Level FlightAware Transoceanic
Thu 08:08:00 AM 53.0522 -28.5445 267° West 450 518 43,000  Level FlightAware Transoceanic
Thu 08:09:00 AM 53.0459 -28.7527 267° West 450 518 43,000  Level FlightAware Transoceanic
Thu 08:10:00 AM 53.0391 -28.9607 267° West 450 518 43,000  Level FlightAware Transoceanic
Thu 08:11:00 AM 53.0320 -29.1687 267° West 450 518 43,000  Level FlightAware Transoceanic
Thu 08:12:00 AM 53.0246 -29.3767 267° West 450 518 43,000  Level FlightAware Transoceanic
Thu 08:13:00 AM 53.0167 -29.5845 266° West 450 518 43,000  Level FlightAware Transoceanic
Thu 08:14:00 AM 53.0085 -29.7923 266° West 450 518 43,000  Level FlightAware Transoceanic
Thu 08:15:00 AM 52.9976 -30.0571 266° West  Level FlightAware Approximate
Thu 08:16:00 AM 52.9935 -30.1140 265° West  Level FlightAware Approximate
Thu 08:17:00 AM 52.9781 -30.3781 265° West  Level FlightAware Approximate
Thu 08:18:00 AM 52.9622 -30.6420 264° West  Level FlightAware Approximate
Thu 08:18:00 AM 53.0000 -30.0000 265° West 462 532 43,000  Level ETMS Enhanced Traffic Management System
Thu 08:19:00 AM 52.9456 -30.9057 264° West  Level FlightAware Approximate
Thu 08:20:00 AM 52.9284 -31.1692 264° West  Level FlightAware Approximate
Thu 08:21:00 AM 52.9107 -31.4325 264° West  Level FlightAware Approximate
Thu 08:22:00 AM 52.8924 -31.6956 264° West  Level FlightAware Approximate
Thu 08:23:00 AM 52.8735 -31.9585 263° West  Level FlightAware Approximate
Thu 08:24:00 AM 52.8618 -32.1181 263° West 462 532 43,000  Level FlightAware Transoceanic
Thu 08:25:00 AM 52.8459 -32.3291 263° West 462 532 43,000  Level FlightAware Transoceanic
Thu 08:26:00 AM 52.8296 -32.5400 263° West 462 532 43,000  Level FlightAware Transoceanic
Thu 08:27:00 AM 52.8130 -32.7507 262° West 462 532 43,000  Level FlightAware Transoceanic
Thu 08:28:00 AM 52.7959 -32.9612 262° West 462 532 43,000  Level FlightAware Transoceanic
Thu 08:29:00 AM 52.7785 -33.1716 262° West 462 532 43,000  Level FlightAware Transoceanic
Thu 08:30:00 AM 52.7608 -33.3818 262° West 462 532 43,000  Level FlightAware Transoceanic
Thu 08:31:00 AM 52.7427 -33.5919 262° West 462 532 43,000  Level FlightAware Transoceanic
Thu 08:32:00 AM 52.7242 -33.8017 262° West 462 532 43,000  Level FlightAware Transoceanic
Thu 08:33:00 AM 52.7053 -34.0114 261° West 462 532 43,000  Level FlightAware Transoceanic
Thu 08:34:00 AM 52.6861 -34.2209 261° West 462 532 43,000  Level FlightAware Transoceanic
Thu 08:35:00 AM 52.6665 -34.4302 261° West 462 532 43,000  Level FlightAware Transoceanic
Thu 08:36:00 AM 52.6465 -34.6394 261° West 462 532 43,000  Level FlightAware Transoceanic
Thu 08:37:00 AM 52.6261 -34.8483 261° West 462 532 43,000  Level FlightAware Transoceanic
Thu 08:38:00 AM 52.6054 -35.0570 261° West 462 532 43,000  Level FlightAware Transoceanic
Thu 08:39:00 AM 52.5844 -35.2655 260° West 462 532 43,000  Level FlightAware Transoceanic
Thu 08:40:00 AM 52.5629 -35.4739 260° West 462 532 43,000  Level FlightAware Transoceanic
Thu 08:41:00 AM 52.5411 -35.6820 260° West 462 532 43,000  Level FlightAware Transoceanic
Thu 08:42:00 AM 52.5189 -35.8899 260° West 462 532 43,000  Level FlightAware Transoceanic
Thu 08:43:00 AM 52.4964 -36.0976 260° West 462 532 43,000  Level FlightAware Transoceanic
Thu 08:44:00 AM 52.4735 -36.3051 260° West 462 532 43,000  Level FlightAware Transoceanic
Thu 08:45:00 AM 52.4502 -36.5124 259° West 462 532 43,000  Level FlightAware Transoceanic
Thu 08:46:00 AM 52.4266 -36.7195 259° West 462 532 43,000  Level FlightAware Transoceanic
Thu 08:47:00 AM 52.4026 -36.9263 259° West 462 532 43,000  Level FlightAware Transoceanic
Thu 08:48:00 AM 52.3783 -37.1329 259° West 462 532 43,000  Level FlightAware Transoceanic
Thu 08:49:00 AM 52.3536 -37.3393 259° West 462 532 43,000  Level FlightAware Transoceanic
Thu 08:50:00 AM 52.3285 -37.5454 259° West 462 532 43,000  Level FlightAware Transoceanic
Thu 08:51:00 AM 52.3031 -37.7513 258° West 462 532 43,000  Level FlightAware Transoceanic
Thu 08:52:00 AM 52.2773 -37.9570 258° West 462 532 43,000  Level FlightAware Transoceanic
Thu 08:53:00 AM 52.2512 -38.1624 258° West 462 532 43,000  Level FlightAware Transoceanic
Thu 08:54:00 AM 52.2247 -38.3676 258° West 462 532 43,000  Level FlightAware Transoceanic
Thu 08:55:00 AM 52.1978 -38.5726 258° West 462 532 43,000  Level FlightAware Transoceanic
Thu 08:56:00 AM 52.1706 -38.7772 258° West 462 532 43,000  Level FlightAware Transoceanic
Thu 08:57:00 AM 52.1431 -38.9817 258° West 462 532 43,000  Level FlightAware Transoceanic
Thu 08:58:00 AM 52.1152 -39.1859 257° West 462 532 43,000  Level FlightAware Transoceanic
Thu 08:59:00 AM 52.0869 -39.3898 257° West 462 532 43,000  Level FlightAware Transoceanic
Thu 09:00:00 AM 52.0583 -39.5934 257° West 462 532 43,000  Level FlightAware Transoceanic
Thu 09:01:00 AM 52.0293 -39.7969 257° West 462 532 43,000  Level FlightAware Transoceanic
Thu 09:02:00 AM 51.9928 -40.0495 257° West  Level FlightAware Approximate
Thu 09:03:00 AM 51.9943 -40.1013 265° West  Level FlightAware Approximate
Thu 09:04:00 AM 51.9794 -40.3596 265° West  Level FlightAware Approximate
Thu 09:04:00 AM 52.0000 -40.0000 265° West 462 532 43,000  Level ETMS Enhanced Traffic Management System
Thu 09:05:00 AM 51.9638 -40.6176 265° West  Level FlightAware Approximate
Thu 09:06:00 AM 51.9478 -40.8755 264° West  Level FlightAware Approximate
Thu 09:07:00 AM 51.9311 -41.1332 264° West  Level FlightAware Approximate
Thu 09:08:00 AM 51.9139 -41.3907 264° West  Level FlightAware Approximate
Thu 09:09:00 AM 51.8962 -41.6480 264° West  Level FlightAware Approximate
Thu 09:10:00 AM 51.8806 -41.8670 263° West 462 532 43,000  Level FlightAware Transoceanic
Thu 09:11:00 AM 51.8655 -42.0738 263° West 462 532 43,000  Level FlightAware Transoceanic
Thu 09:12:00 AM 51.8501 -42.2804 263° West 462 532 43,000  Level FlightAware Transoceanic
Thu 09:13:00 AM 51.8343 -42.4869 263° West 462 532 43,000  Level FlightAware Transoceanic
Thu 09:14:00 AM 51.8181 -42.6933 263° West 462 532 43,000  Level FlightAware Transoceanic
Thu 09:15:00 AM 51.8016 -42.8995 263° West 462 532 43,000  Level FlightAware Transoceanic
Thu 09:16:00 AM 51.7847 -43.1056 262° West 462 532 43,000  Level FlightAware Transoceanic
Thu 09:17:00 AM 51.7674 -43.3115 262° West 462 532 43,000  Level FlightAware Transoceanic
Thu 09:18:00 AM 51.7498 -43.5172 262° West 462 532 43,000  Level FlightAware Transoceanic
Thu 09:19:00 AM 51.7319 -43.7228 262° West 462 532 43,000  Level FlightAware Transoceanic
Thu 09:20:00 AM 51.7135 -43.9282 262° West 462 532 43,000  Level FlightAware Transoceanic
Thu 09:21:00 AM 51.6949 -44.1335 262° West 462 532 43,000  Level FlightAware Transoceanic
Thu 09:22:00 AM 51.6758 -44.3386 261° West 462 532 43,000  Level FlightAware Transoceanic
Thu 09:23:00 AM 51.6564 -44.5435 261° West 462 532 43,000  Level FlightAware Transoceanic
Thu 09:24:00 AM 51.6367 -44.7482 261° West 462 532 43,000  Level FlightAware Transoceanic
Thu 09:25:00 AM 51.6166 -44.9528 261° West 462 532 43,000  Level FlightAware Transoceanic
Thu 09:26:00 AM 51.5961 -45.1572 261° West 462 532 43,000  Level FlightAware Transoceanic
Thu 09:27:00 AM 51.5753 -45.3613 261° West 462 532 43,000  Level FlightAware Transoceanic
Thu 09:28:00 AM 51.5541 -45.5653 260° West 462 532 43,000  Level FlightAware Transoceanic
Thu 09:29:00 AM 51.5326 -45.7691 260° West 462 532 43,000  Level FlightAware Transoceanic
Thu 09:30:00 AM 51.5107 -45.9728 260° West 462 532 43,000  Level FlightAware Transoceanic
Thu 09:31:00 AM 51.4884 -46.1762 260° West 462 532 43,000  Level FlightAware Transoceanic
Thu 09:32:00 AM 51.4659 -46.3794 260° West 462 532 43,000  Level FlightAware Transoceanic
Thu 09:33:00 AM 51.4429 -46.5824 260° West 462 532 43,000  Level FlightAware Transoceanic
Thu 09:34:00 AM 51.4197 -46.7852 259° West 462 532 43,000  Level FlightAware Transoceanic
Thu 09:35:00 AM 51.3960 -46.9878 259° West 462 532 43,000  Level FlightAware Transoceanic
Thu 09:36:00 AM 51.3720 -47.1902 259° West 462 532 43,000  Level FlightAware Transoceanic
Thu 09:37:00 AM 51.3477 -47.3923 259° West 462 532 43,000  Level FlightAware Transoceanic
Thu 09:38:00 AM 51.3230 -47.5943 259° West 462 532 43,000  Level FlightAware Transoceanic
Thu 09:39:00 AM 51.2980 -47.7961 259° West 462 532 43,000  Level FlightAware Transoceanic
Thu 09:40:00 AM 51.2726 -47.9976 259° West 462 532 43,000  Level FlightAware Transoceanic
Thu 09:41:00 AM 51.2469 -48.1989 258° West 462 532 43,000  Level FlightAware Transoceanic
Thu 09:42:00 AM 51.2208 -48.3999 258° West 462 532 43,000  Level FlightAware Transoceanic
Thu 09:43:00 AM 51.1944 -48.6008 258° West 462 532 43,000  Level FlightAware Transoceanic
Thu 09:44:00 AM 51.1677 -48.8014 258° West 462 532 43,000  Level FlightAware Transoceanic
Thu 09:45:00 AM 51.1406 -49.0017 258° West 462 532 43,000  Level FlightAware Transoceanic
Thu 09:46:00 AM 51.1132 -49.2019 258° West 462 532 43,000  Level FlightAware Transoceanic
Thu 09:47:00 AM 51.0854 -49.4018 257° West 462 532 43,000  Level FlightAware Transoceanic
Thu 09:48:00 AM 51.0573 -49.6014 257° West 462 532 43,000  Level FlightAware Transoceanic
Thu 09:49:00 AM 51.0288 -49.8008 257° West 462 532 43,000  Level FlightAware Transoceanic
Thu 09:50:00 AM 50.9930 -50.0482 257° West  Level FlightAware Approximate
Thu 09:51:00 AM 50.9680 -50.0683 250° West  Level FlightAware Approximate
Thu 09:51:21 AM 51.0000 -50.0000 250° West 419 482 43,000  Level ETMS Enhanced Traffic Management System
Thu 09:52:00 AM 50.9139 -50.3069 250° West  Level FlightAware Approximate
Thu 09:52:34 AM 50.9333 -50.1833 249° West 480 552 43,000  Level Moncton Center
Thu 09:53:00 AM 50.8593 -50.5448 250° West  Level FlightAware Approximate
Thu 09:53:16 AM 50.9000 -50.3333 251° West 460 529 43,000  Level Gander Center
Thu 09:54:00 AM 50.8166 -50.7295 250° West  Level FlightAware Approximate
Thu 09:54:16 AM 50.8500 -50.5000 245° Southwest 460 529 43,000  Level Gander Center
Thu 09:54:34 AM 50.8500 -50.5667 270° West 460 529 43,000  Level Moncton Center
Thu 09:55:00 AM 50.7735 -50.9139 250° West  Level FlightAware Approximate
Thu 09:55:34 AM 50.8000 -50.7333 245° Southwest 460 529 43,000  Level Moncton Center
Thu 09:56:00 AM 50.7302 -51.0979 250° West  Level FlightAware Approximate
Thu 09:56:34 AM 50.7500 -50.9333 249° West 460 529 43,000  Level Moncton Center
Thu 09:57:00 AM 50.7128 -51.2109 249° West 419 482 43,000  Level FlightAware Transoceanic
Thu 09:57:34 AM 50.7000 -51.1167 247° West 450 518 43,000  Level Moncton Center
Thu 09:58:16 AM 50.6667 -51.2333 246° West 450 518 43,000  Level Gander Center
Thu 09:58:58 AM 50.6333 -51.3833 251° West 440 506 43,000  Level Gander Center
Thu 09:59:34 AM 50.6167 -51.4833 255° West 450 518 43,000  Level Moncton Center
Thu 10:00:34 AM 50.5667 -51.6500 245° Southwest 450 518 43,000  Level Moncton Center
Thu 10:00:58 AM 50.5500 -51.7333 253° West 450 518 43,000  Level Gander Center
Thu 10:01:58 AM 50.5000 -51.9167 247° West 450 518 43,000  Level Gander Center
Thu 10:02:34 AM 50.4667 -52.0333 246° West 450 518 43,000  Level Moncton Center
Thu 10:03:34 AM 50.4000 -52.2000 238° Southwest 460 529 43,000  Level Moncton Center
Thu 10:03:58 AM 50.3833 -52.2667 249° West 450 518 43,000  Level Gander Center
Thu 10:04:34 AM 50.3667 -52.4000 259° West 450 518 43,000  Level Moncton Center
Thu 10:05:34 AM 50.3000 -52.5667 238° Southwest 450 518 43,000  Level Moncton Center
Thu 10:05:58 AM 50.3000 -52.6333 270° West 450 518 43,000  Level Gander Center
Thu 10:06:58 AM 50.2500 -52.8167 247° West 450 518 43,000  Level Gander Center
Thu 10:07:58 AM 50.1833 -53.0000 240° Southwest 440 506 43,000  Level Gander Center
Thu 10:08:58 AM 50.1333 -53.1833 247° West 440 506 43,000  Level Gander Center
Thu 10:09:58 AM 50.1000 -53.3500 253° West 440 506 43,000  Level Gander Center
Thu 10:10:34 AM 50.0500 -53.4667 236° Southwest 450 518 43,000  Level Moncton Center
Thu 10:11:34 AM 50.0167 -53.6167 251° West 440 506 43,000  Level Moncton Center
Thu 10:11:58 AM 49.9833 -53.7000 238° Southwest 440 506 43,000  Level Gander Center
Thu 10:12:58 AM 49.9500 -53.8667 253° West 440 506 43,000  Level Gander Center
Thu 10:13:58 AM 49.9000 -54.0667 249° West 440 506 43,000  Level Gander Center
Thu 10:14:58 AM 49.8500 -54.2167 243° Southwest 440 506 43,000  Level Gander Center
Thu 10:15:16 AM 49.8167 -54.2833 232° Southwest 440 506 43,000  Level Gander Center
Thu 10:16:16 AM 49.7833 -54.4333 251° West 440 506 43,000  Level Gander Center
Thu 10:17:16 AM 49.7167 -54.6000 238° Southwest 440 506 43,000  Level Gander Center
Thu 10:18:16 AM 49.6667 -54.8000 249° West 440 506 43,000  Level Gander Center
Thu 10:19:16 AM 49.6333 -54.9500 251° West 440 506 43,000  Level Gander Center
Thu 10:20:16 AM 49.5667 -55.1167 238° Southwest 440 506 43,000  Level Gander Center
Thu 10:21:16 AM 49.5167 -55.3000 247° West 430 495 43,000 100 Level Gander Center
Thu 10:22:16 AM 49.4667 -55.4667 245° Southwest 430 495 43,200 350 Climbing Gander Center
Thu 10:23:16 AM 49.4333 -55.6167 251° West 430 495 43,700 500 Climbing Gander Center
Thu 10:24:16 AM 49.3667 -55.7833 238° Southwest 440 506 44,200 450 Climbing Gander Center
Thu 10:25:16 AM 49.3167 -55.9500 245° Southwest 440 506 44,600 400 Climbing Gander Center
Thu 10:26:16 AM 49.2500 -56.1333 241° Southwest 440 506 45,000 200 Climbing Gander Center
Thu 10:27:16 AM 49.2000 -56.2833 243° Southwest 450 518 45,000  Level Gander Center
Thu 10:28:16 AM 49.1500 -56.4833 249° West 450 518 45,000  Level Gander Center
Thu 10:29:16 AM 49.0833 -56.6333 236° Southwest 450 518 45,000  Level Gander Center
Thu 10:30:16 AM 49.0500 -56.8000 253° West 450 518 45,000  Level Gander Center
Thu 10:31:16 AM 48.9833 -56.9833 241° Southwest 450 518 45,000  Level Gander Center
Thu 10:32:16 AM 48.9167 -57.1667 241° Southwest 450 518 45,000  Level Gander Center
Thu 10:33:16 AM 48.8667 -57.3167 243° Southwest 450 518 45,000  Level Gander Center
Thu 10:33:34 AM 48.8500 -57.3667 243° Southwest 450 518 45,000  Level Moncton Center
Thu 10:34:34 AM 48.7833 -57.5333 239° Southwest 440 506 45,000  Level Moncton Center
Thu 10:35:16 AM 48.7500 -57.6500 247° West 440 506 45,000  Level Gander Center
Thu 10:35:34 AM 48.7333 -57.7167 249° West 450 518 45,000  Level Moncton Center
Thu 10:36:34 AM 48.6667 -57.8833 239° Southwest 450 518 45,000  Level Moncton Center
Thu 10:37:16 AM 48.6333 -58.0000 247° West 450 518 45,000  Level Gander Center
Thu 10:38:16 AM 48.5667 -58.1833 241° Southwest 450 518 45,000  Level Gander Center
Thu 10:38:34 AM 48.5500 -58.2167 233° Southwest 450 518 45,000  Level Moncton Center
Thu 10:39:34 AM 48.5000 -58.3833 246° West 450 518 45,000  Level Moncton Center
Thu 10:40:16 AM 48.4667 -58.5167 249° West 450 518 45,000 118 Level Gander Center
Thu 10:41:16 AM 48.4000 -58.6667 236° Southwest 460 529 45,200 231 Climbing Gander Center
Thu 10:41:34 AM 48.3833 -58.7167 243° Southwest 450 518 45,300 308 Climbing Moncton Center
Thu 10:42:34 AM 48.3167 -58.8833 239° Southwest 450 518 45,600 300 Climbing Moncton Center
Thu 10:43:34 AM 48.2667 -59.0667 248° West 450 518 45,900 300 Climbing Moncton Center
Thu 10:44:34 AM 48.2000 -59.2167 236° Southwest 440 506 46,200 250 Climbing Moncton Center
Thu 10:45:34 AM 48.1667 -59.3833 253° West 440 506 46,400 235 Climbing Moncton Center
Thu 10:46:16 AM 48.1167 -59.4833 233° Southwest 440 506 46,600 200 Climbing Gander Center
Thu 10:46:34 AM 48.0833 -59.5333 225° Southwest 440 506 46,600 154 Level Moncton Center
Thu 10:47:34 AM 48.0333 -59.6833 244° Southwest 440 506 46,800 200 Climbing Moncton Center
Thu 10:48:34 AM 47.9667 -59.8667 242° Southwest 450 518 47,000 100 Climbing Moncton Center
Thu 10:49:34 AM 47.9167 -60.0167 244° Southwest 450 518 47,000  Level Moncton Center
Thu 10:50:34 AM 47.8500 -60.1833 239° Southwest 450 518 47,000  Level Moncton Center
Thu 10:51:34 AM 47.8000 -60.3667 248° West 450 518 47,000  Level Moncton Center
Thu 10:52:34 AM 47.7333 -60.5167 237° Southwest 450 518 47,000  Level Moncton Center
Thu 10:53:34 AM 47.6667 -60.7000 242° Southwest 450 518 47,000  Level Moncton Center
Thu 10:54:34 AM 47.6167 -60.8500 244° Southwest 450 518 47,000  Level Moncton Center
Thu 10:55:34 AM 47.5500 -61.0000 237° Southwest 450 518 47,000  Level Moncton Center
Thu 10:56:34 AM 47.4833 -61.1500 237° Southwest 450 518 47,000  Level Moncton Center
Thu 10:57:16 AM 47.4500 -61.2833 250° West 450 518 47,000  Level Gander Center
Thu 10:58:16 AM 47.3833 -61.4500 239° Southwest 450 518 47,000  Level Gander Center
Thu 10:58:34 AM 47.3667 -61.4833 234° Southwest 450 518 47,000  Level Moncton Center
Thu 10:59:34 AM 47.3000 -61.6333 237° Southwest 460 529 47,000  Level Moncton Center
Thu 11:00:16 AM 47.2500 -61.7667 241° Southwest 460 529 47,000  Level Gander Center
Thu 11:01:16 AM 47.2000 -61.9167 244° Southwest 460 529 47,000  Level Gander Center
Thu 11:01:34 AM 47.1667 -61.9833 234° Southwest 460 529 47,000  Level Moncton Center
Thu 11:02:34 AM 47.1167 -62.1333 244° Southwest 450 518 47,000  Level Moncton Center
Thu 11:03:34 AM 47.0500 -62.3167 242° Southwest 450 518 47,000  Level Moncton Center
Thu 11:04:16 AM 47.0000 -62.4333 238° Southwest 450 518 47,000  Level Gander Center
Thu 11:04:34 AM 46.9833 -62.4667 234° Southwest 450 518 47,000  Level Moncton Center
Thu 11:05:34 AM 46.9333 -62.6333 246° West 450 518 47,000  Level Moncton Center
Thu 11:06:16 AM 46.8833 -62.7167 229° Southwest 450 518 47,000  Level Gander Center
Thu 11:06:34 AM 46.8667 -62.7833 250° West 450 518 47,000  Level Moncton Center
Thu 11:07:34 AM 46.8000 -62.9500 240° Southwest 450 518 47,000  Level Moncton Center
Thu 11:08:34 AM 46.7333 -63.1000 237° Southwest 450 518 47,000  Level Moncton Center
Thu 11:09:34 AM 46.6833 -63.2667 246° West 450 518 47,000  Level Moncton Center
Thu 11:10:34 AM 46.6167 -63.4167 237° Southwest 450 518 47,000  Level Moncton Center
Thu 11:11:34 AM 46.5667 -63.6000 248° West 450 518 47,000  Level Moncton Center
Thu 11:12:34 AM 46.5000 -63.7333 234° Southwest 450 518 47,000  Level Moncton Center
Thu 11:13:34 AM 46.4333 -63.9167 242° Southwest 450 518 47,000  Level Moncton Center
Thu 11:14:34 AM 46.3833 -64.0500 242° Southwest 450 518 47,000  Level Moncton Center
Thu 11:15:34 AM 46.3167 -64.2333 242° Southwest 450 518 47,000  Level Moncton Center
Thu 11:16:34 AM 46.2500 -64.3667 234° Southwest 450 518 47,000  Level Moncton Center
Thu 11:17:34 AM 46.1833 -64.5500 242° Southwest 460 529 47,000  Level Moncton Center
Thu 11:18:34 AM 46.1167 -64.6833 234° Southwest 460 529 47,000  Level Moncton Center
Thu 11:19:34 AM 46.0500 -64.8500 240° Southwest 460 529 47,000  Level Moncton Center
Thu 11:20:34 AM 45.9667 -65.0167 234° Southwest 460 529 47,000  Level Moncton Center
Thu 11:21:34 AM 45.9000 -65.1667 237° Southwest 460 529 47,000  Level Moncton Center
Thu 11:22:34 AM 45.8500 -65.3333 247° West 460 529 47,000  Level Moncton Center
Thu 11:23:34 AM 45.7833 -65.5000 240° Southwest 460 529 47,000  Level Moncton Center
Thu 11:24:34 AM 45.7167 -65.6500 238° Southwest 460 529 47,000  Level Moncton Center
Thu 11:25:34 AM 45.6500 -65.8167 240° Southwest 460 529 47,000  Level Moncton Center
Thu 11:26:34 AM 45.5833 -65.9500 234° Southwest 460 529 47,000  Level Moncton Center
Thu 11:27:34 AM 45.5167 -66.1167 240° Southwest 460 529 47,000  Level Moncton Center
Thu 11:28:34 AM 45.4500 -66.2833 240° Southwest 460 529 47,000  Level Moncton Center
Thu 11:29:34 AM 45.3833 -66.4167 235° Southwest 460 529 47,000  Level Moncton Center
Thu 11:30:34 AM 45.3167 -66.5833 240° Southwest 460 529 47,000  Level Moncton Center
Thu 11:31:34 AM 45.2500 -66.7333 238° Southwest 460 529 47,000  Level Moncton Center
Thu 11:32:34 AM 45.1833 -66.8833 238° Southwest 460 529 47,000  Level Moncton Center
Thu 11:33:34 AM 45.1000 -67.0500 235° Southwest 460 529 47,000  Level Moncton Center
Thu 11:34:34 AM 45.0333 -67.1833 235° Southwest 460 529 47,000  Level Moncton Center
Thu 11:35:34 AM 44.9667 -67.3500 241° Southwest 460 529 47,000  Level Moncton Center
Thu 11:36:34 AM 44.9000 -67.5167 241° Southwest 460 529 47,000  Level Moncton Center
Thu 11:37:34 AM 44.8167 -67.6500 229° Southwest 460 529 47,000  Level Moncton Center
Thu 11:38:34 AM 44.7667 -67.8167 247° West 470 541 47,000  Level Moncton Center
Thu 11:39:34 AM 44.6500 -67.9167 211° Southwest 470 541 47,000  Level Moncton Center
Thu 11:40:39 AM 44.5519 -68.0289 219° Southwest 475 547 47,000  Level Boston Center
Thu 11:41:39 AM 44.4367 -68.1219 210° Southwest 475 547 47,000  Level Boston Center
Thu 11:42:39 AM 44.3233 -68.2142 210° Southwest 480 552 47,000  Level Boston Center
Thu 11:43:39 AM 44.2081 -68.3094 211° Southwest 480 552 47,000  Level Boston Center
Thu 11:44:39 AM 44.0944 -68.4011 210° Southwest 473 544 47,000  Level Boston Center
Thu 11:45:39 AM 43.9831 -68.4925 211° Southwest 473 544 47,000  Level Boston Center
Thu 11:46:39 AM 43.8736 -68.5831 211° Southwest 468 539 47,000  Level Boston Center
Thu 11:47:39 AM 43.7600 -68.6767 211° Southwest 468 539 47,000  Level Boston Center
Thu 11:48:39 AM 43.6603 -68.7547 210° Southwest 468 539 47,000  Level Boston Center
Thu 11:49:34 AM 43.5333 -68.8500 209° Southwest 470 541 47,000  Level Moncton Center
Thu 11:50:34 AM 43.4000 -68.9333 204° Southwest 470 541 47,000  Level Moncton Center
Thu 11:51:34 AM 43.3000 -69.0333 216° Southwest 460 529 47,000  Level Moncton Center
Thu 11:52:34 AM 43.1833 -69.1167 208° Southwest 470 541 47,000  Level Moncton Center
Thu 11:53:34 AM 43.0833 -69.2000 211° Southwest 470 541 47,000  Level Moncton Center
Thu 11:54:39 AM 42.9861 -69.2894 214° Southwest 468 539 47,000  Level Boston Center
Thu 11:55:39 AM 42.8719 -69.3803 210° Southwest 468 539 47,000  Level Boston Center
Thu 11:56:39 AM 42.7475 -69.4769 210° Southwest 468 539 47,000  Level Boston Center
Thu 11:57:39 AM 42.6328 -69.5642 209° Southwest 468 539 47,000 -250 Level Boston Center
Thu 11:58:39 AM 42.5161 -69.6514 209° Southwest 468 539 46,500 -750 Descending Boston Center
Thu 11:59:39 AM 42.4100 -69.7378 211° Southwest 463 533 45,500 -900 Descending Boston Center
Thu 12:00:39 PM 42.3219 -69.8061 210° Southwest 463 533 44,700 -1,000 Descending Boston Center
Thu 12:01:39 PM 42.2072 -69.8950 210° Southwest 449 517 43,500 -1,150 Descending Boston Center
Thu 12:02:39 PM 42.0883 -69.9867 210° Southwest 448 516 42,400 -1,273 Descending Boston Center
Thu 12:03:51 PM 41.9764 -70.1111 220° Southwest 439 505 40,700 -1,909 Descending Boston Center
Thu 12:04:51 PM 41.9039 -70.2419 233° Southwest 444 511 38,200 -2,550 Descending Boston Center
Thu 12:05:51 PM 41.8333 -70.3756 235° Southwest 444 511 35,600 -2,150 Descending Boston Center
Thu 12:06:51 PM 41.7789 -70.4692 232° Southwest 456 525 33,900 -2,350 Descending Boston Center
Thu 12:07:51 PM 41.6897 -70.6303 233° Southwest 456 525 30,900 -3,032 Descending Boston Center
Thu 12:08:26 PM 41.6392 -70.7317 236° Southwest 433 498 29,100 -2,400 Descending Boston Center
Thu 12:08:51 PM 41.6231 -70.7600 233° Southwest 448 516 28,500 -2,278 Descending Boston Center
Thu 12:09:45 PM 41.5519 -70.8950 235° Southwest 420 483 26,100 -2,504 Descending Boston Center
Thu 12:10:46 PM 41.4828 -71.0131 232° Southwest 408 470 23,700 -2,312 Descending Boston Center
Thu 12:11:34 PM 41.4317 -71.1056 234° Southwest 399 459 21,900 -2,308 Descending Boston Center
Thu 12:11:51 PM 41.4156 -71.1419 239° Southwest 409 471 21,200 -2,262 Descending Boston Center
Thu 12:12:35 PM 41.3664 -71.2258 232° Southwest 376 433 19,600 -2,100 Descending Boston Center
Thu 12:12:51 PM 41.3542 -71.2511 237° Southwest 396 456 19,100 -2,066 Descending Boston Center
Thu 12:13:36 PM 41.3050 -71.3347 232° Southwest 359 413 17,500 -1,900 Descending Boston Center
Thu 12:13:51 PM 41.3008 -71.3431 236° Southwest 362 417 17,200 -1,900 Descending Boston Center
Thu 12:14:36 PM 41.2475 -71.4353 232° Southwest 351 404 15,600 -2,100 Descending Boston Center
Thu 12:14:51 PM 41.2375 -71.4575 239° Southwest 357 411 15,100 -1,967 Descending Boston Center
Thu 12:15:37 PM 41.1922 -71.5353 232° Southwest 340 391 13,600 -1,868 Descending Boston Center
Thu 12:16:37 PM 41.1283 -71.6217 226° Southwest 325 374 11,800 -1,438 Descending Boston Center
Thu 12:17:38 PM 41.0600 -71.6997 221° Southwest 322 371 10,700 -907 Descending Boston Center
Thu 12:18:03 PM 41.0436 -71.7217 225° Southwest 321 369 10,500 -764 Descending Boston Center
Thu 12:18:33 PM 41.0000 -71.7692 219° Southwest 318 366 10,000 -194 Descending Boston Center
Thu 12:20:38 PM 40.9500 -71.9833 253° West 323 372 10,000 -201 Level New York TRACON
Thu 12:21:32 PM 40.9667 -72.1000 281° West 320 368 9,400 -1,053 Descending New York TRACON
Thu 12:22:32 PM 41.0000 -72.1833 298° West 281 323 8,000 -1,550 Descending New York TRACON
Thu 12:23:32 PM 41.0333 -72.2667 298° West 275 316 6,300 -1,750 Descending New York TRACON
Thu 12:24:32 PM 41.0667 -72.3500 298° West 262 302 4,500 -1,150 Descending New York TRACON
Thu 12:25:32 PM 41.1000 -72.4333 298° West 260 299 4,000 -550 Descending New York TRACON
Thu 12:26:32 PM 41.1333 -72.5167 298° West 259 298 3,400 -1,095 Descending New York TRACON
Thu 12:27:38 PM 41.1667 -72.6167 294° West 256 295 1,700 -950 Descending New York TRACON
Thu 12:28:32 PM 41.2000 -72.6833 304° West 215 247 1,500 -222 Descending New York TRACON

Login

Don't have an account? Register now (free) for customized features, flight alerts, and more!